Time;durP1;ratioP1;P1;durP2;ratioP2;P2;SDS_P1;SDS_P2;PMS_P1;PMS_P2;Temp;Humidity;BMP_temperature;BMP_pressure;BME280_temperature;BME280_humidity;BME280_pressure;Samples;Min_cycle;Max_cycle;Signal;HPM_P1;HPM_P2
2023/09/07 00:00:16;;;;;;;14.77;11.38;;;15.20;99.90;;;;;;4969302;28;20523;-78
2023/09/07 00:02:44;;;;;;;13.02;10.82;;;15.10;99.90;;;;;;4969090;28;20098;-77
2023/09/07 00:05:13;;;;;;;13.35;10.10;;;15.10;99.90;;;;;;4968150;28;20423;-77
2023/09/07 00:07:40;;;;;;;15.43;10.48;;;15.10;99.90;;;;;;4968628;28;20094;-79
2023/09/07 00:10:08;;;;;;;17.23;12.70;;;15.10;99.90;;;;;;4967295;28;20578;-78
2023/09/07 00:12:39;;;;;;;13.75;11.13;;;15.10;99.90;;;;;;4969836;28;20470;-78
2023/09/07 00:15:08;;;;;;;12.80;10.27;;;15.00;99.90;;;;;;4970365;28;20043;-78
2023/09/07 00:17:35;;;;;;;11.38;9.88;;;15.10;99.90;;;;;;4969186;28;20122;-78
2023/09/07 00:20:10;;;;;;;11.88;10.13;;;15.00;99.90;;;;;;4968502;28;20110;-78
2023/09/07 00:22:37;;;;;;;11.70;10.50;;;15.00;99.90;;;;;;4968953;28;20061;-79
2023/09/07 00:25:06;;;;;;;14.35;10.60;;;14.90;99.90;;;;;;4968926;28;20770;-78
2023/09/07 00:27:34;;;;;;;10.60;9.50;;;14.90;99.90;;;;;;4968182;28;20050;-76
2023/09/07 00:30:01;;;;;;;11.75;9.93;;;14.90;99.90;;;;;;4968626;28;20046;-78
2023/09/07 00:32:29;;;;;;;14.68;10.55;;;14.80;99.90;;;;;;4967235;28;20049;-78
2023/09/07 00:34:56;;;;;;;11.00;9.88;;;14.80;99.90;;;;;;4969219;28;20537;-78
2023/09/07 00:37:25;;;;;;;11.48;10.05;;;14.70;99.90;;;;;;4968135;28;20043;-77
2023/09/07 00:39:53;;;;;;;14.15;10.70;;;14.80;99.90;;;;;;4967649;28;20047;-76
2023/09/07 00:42:20;;;;;;;11.13;9.98;;;14.80;99.90;;;;;;4968605;28;20050;-77
2023/09/07 00:44:48;;;;;;;12.60;9.90;;;14.80;99.90;;;;;;4967393;28;20463;-79
2023/09/07 00:47:16;;;;;;;14.73;9.85;;;14.80;99.90;;;;;;4968248;28;20070;-78
2023/09/07 00:49:44;;;;;;;11.63;9.23;;;14.70;99.90;;;;;;4967209;28;20457;-78
2023/09/07 00:52:11;;;;;;;10.65;9.55;;;14.70;99.90;;;;;;4967260;28;20043;-77
2023/09/07 00:54:41;;;;;;;12.70;9.98;;;14.70;99.90;;;;;;4967693;28;20053;-77
2023/09/07 00:57:09;;;;;;;12.52;10.13;;;14.70;99.90;;;;;;4967146;28;20055;-78
2023/09/07 00:59:37;;;;;;;10.45;9.35;;;14.60;99.90;;;;;;4966822;28;20039;-78
2023/09/07 01:02:05;;;;;;;10.98;8.75;;;14.50;99.90;;;;;;4966577;28;20133;-77
2023/09/07 01:04:33;;;;;;;12.38;9.60;;;14.50;99.90;;;;;;4970450;28;20062;-77
2023/09/07 01:07:07;;;;;;;12.82;9.43;;;14.70;99.90;;;;;;4970502;28;20065;-78
2023/09/07 01:09:37;;;;;;;12.35;10.13;;;14.70;99.90;;;;;;4972235;28;20109;-77
2023/09/07 01:12:10;;;;;;;11.75;10.18;;;14.60;99.90;;;;;;4969944;28;20035;-75
2023/09/07 01:14:37;;;;;;;12.63;10.07;;;14.50;99.90;;;;;;4971302;28;20495;-79
2023/09/07 01:17:05;;;;;;;14.05;9.75;;;14.60;99.90;;;;;;4971750;28;20085;-77
2023/09/07 01:19:33;;;;;;;12.18;9.88;;;14.50;99.90;;;;;;4970337;28;20138;-79
2023/09/07 01:22:04;;;;;;;12.25;9.98;;;14.40;99.90;;;;;;4970565;28;20077;-77
2023/09/07 01:24:32;;;;;;;12.18;9.68;;;14.40;99.90;;;;;;4970498;28;20047;-79
2023/09/07 01:27:00;;;;;;;10.90;8.60;;;14.40;99.90;;;;;;4971130;28;20047;-76
2023/09/07 01:29:29;;;;;;;14.68;9.68;;;14.40;99.90;;;;;;4970252;28;20039;-78
2023/09/07 01:31:56;;;;;;;13.73;9.82;;;14.40;99.90;;;;;;4969136;28;20499;-78
2023/09/07 01:34:24;;;;;;;11.45;10.02;;;14.40;99.90;;;;;;4971616;28;20101;-77
2023/09/07 01:36:51;;;;;;;12.20;10.30;;;14.40;99.90;;;;;;4970365;28;20094;-78
2023/09/07 01:39:20;;;;;;;11.02;9.75;;;14.40;99.90;;;;;;4970392;28;20121;-77
2023/09/07 01:41:47;;;;;;;14.98;10.25;;;14.30;99.90;;;;;;4967039;28;20508;-76
2023/09/07 01:44:16;;;;;;;12.13;9.77;;;14.40;99.90;;;;;;4970016;28;20045;-77
2023/09/07 01:46:43;;;;;;;11.05;9.32;;;14.30;99.90;;;;;;4982016;28;20110;-77
2023/09/07 01:49:11;;;;;;;10.52;9.43;;;14.20;99.90;;;;;;4995011;28;20051;-78
2023/09/07 01:51:38;;;;;;;12.25;8.93;;;14.20;99.90;;;;;;4984435;28;20566;-78
2023/09/07 01:54:06;;;;;;;10.20;9.05;;;14.40;99.90;;;;;;4969608;28;20066;-78
2023/09/07 01:56:36;;;;;;;10.20;9.20;;;14.20;99.90;;;;;;4969713;28;20066;-79
2023/09/07 01:59:03;;;;;;;12.00;9.50;;;14.20;99.90;;;;;;4969547;28;20508;-77
2023/09/07 02:01:36;;;;;;;12.65;9.65;;;14.10;99.90;;;;;;4969891;28;20138;-78
2023/09/07 02:04:04;;;;;;;13.18;10.00;;;14.20;99.90;;;;;;4977936;28;20093;-76
2023/09/07 02:06:31;;;;;;;12.82;9.75;;;14.20;99.90;;;;;;4973140;28;20077;-79
2023/09/07 02:08:59;;;;;;;10.90;9.00;;;14.20;99.90;;;;;;4971486;28;20050;-78
2023/09/07 02:11:26;;;;;;;11.55;10.07;;;14.10;99.90;;;;;;4970769;28;20118;-77
2023/09/07 02:13:55;;;;;;;13.43;10.35;;;14.10;99.90;;;;;;4970448;28;20047;-78
2023/09/07 02:16:22;;;;;;;13.02;9.75;;;14.00;99.90;;;;;;4968277;28;20043;-77
2023/09/07 02:18:51;;;;;;;13.60;10.40;;;14.10;99.90;;;;;;4969289;28;20047;-77
2023/09/07 02:21:19;;;;;;;11.18;9.95;;;14.00;99.90;;;;;;4968247;28;20103;-78
2023/09/07 02:23:46;;;;;;;11.85;10.23;;;14.00;99.90;;;;;;4968684;28;20503;-77
2023/09/07 02:26:14;;;;;;;12.48;9.90;;;14.00;99.90;;;;;;4970595;28;20055;-77
2023/09/07 02:28:42;;;;;;;11.80;10.02;;;14.00;99.90;;;;;;4968605;28;20129;-76
2023/09/07 02:31:11;;;;;;;11.60;10.43;;;13.90;99.90;;;;;;4985828;28;20053;-78
2023/09/07 02:33:38;;;;;;;12.52;10.25;;;13.80;99.90;;;;;;4969366;28;20089;-78
2023/09/07 02:36:06;;;;;;;11.88;10.10;;;13.70;99.90;;;;;;4970530;28;20047;-78
2023/09/07 02:38:33;;;;;;;12.40;10.10;;;13.80;99.90;;;;;;4967822;28;20050;-76
2023/09/07 02:41:02;;;;;;;12.07;9.95;;;13.80;99.90;;;;;;4968568;28;20047;-78
2023/09/07 02:43:29;;;;;;;16.15;10.20;;;13.90;99.90;;;;;;4968244;28;20067;-79
2023/09/07 02:45:58;;;;;;;11.82;10.55;;;13.80;99.90;;;;;;4968545;28;20344;-76
2023/09/07 02:48:27;;;;;;;15.40;11.50;;;13.80;99.90;;;;;;4968646;28;20039;-75
2023/09/07 02:50:58;;;;;;;11.43;9.65;;;13.70;99.90;;;;;;4968453;28;20153;-78
2023/09/07 02:53:25;;;;;;;12.00;9.75;;;13.70;99.90;;;;;;4968500;28;20046;-77
2023/09/07 02:55:53;;;;;;;11.85;10.50;;;13.70;99.90;;;;;;4967453;28;20422;-77
2023/09/07 02:58:20;;;;;;;10.50;9.40;;;13.70;99.90;;;;;;4968360;28;20066;-77
2023/09/07 03:00:48;;;;;;;13.63;10.18;;;13.70;99.90;;;;;;4968309;28;20599;-80
2023/09/07 03:03:18;;;;;;;13.00;10.00;;;13.80;99.90;;;;;;4949079;29;20575;-76
2023/09/07 03:05:48;;;;;;;12.18;9.75;;;13.80;99.90;;;;;;4949163;28;20051;-78
2023/09/07 03:08:17;;;;;;;12.65;9.63;;;13.80;99.90;;;;;;4947790;28;20107;-79
2023/09/07 03:10:44;;;;;;;12.63;9.85;;;13.70;99.90;;;;;;4948421;28;20119;-78
2023/09/07 03:13:12;;;;;;;11.50;10.18;;;13.70;99.90;;;;;;4948885;28;20074;-76
2023/09/07 03:15:39;;;;;;;13.93;10.20;;;13.60;99.90;;;;;;4949841;28;20043;-79
2023/09/07 03:18:11;;;;;;;11.05;9.48;;;13.60;99.90;;;;;;4941392;28;20039;-77
2023/09/07 03:20:39;;;;;;;11.65;9.88;;;13.60;99.90;;;;;;4948127;28;20377;-77
2023/09/07 03:23:09;;;;;;;13.65;11.55;;;13.60;99.90;;;;;;4947025;28;20490;-79
2023/09/07 03:25:37;;;;;;;14.43;11.32;;;13.50;99.90;;;;;;4946975;28;20102;-77
2023/09/07 03:28:05;;;;;;;15.85;11.38;;;13.40;99.90;;;;;;4947326;28;20055;-79
2023/09/07 03:30:35;;;;;;;13.02;10.20;;;13.40;99.90;;;;;;4947854;29;20137;-78
2023/09/07 03:33:05;;;;;;;14.25;11.15;;;13.30;99.90;;;;;;4951616;28;20142;-77
2023/09/07 03:35:32;;;;;;;12.75;11.02;;;13.30;99.90;;;;;;4948901;28;20468;-78
2023/09/07 03:38:00;;;;;;;12.43;9.85;;;13.40;99.90;;;;;;4949700;28;20354;-77
2023/09/07 03:40:29;;;;;;;13.52;10.07;;;13.50;99.90;;;;;;4947319;28;20049;-76
2023/09/07 03:42:57;;;;;;;12.85;10.13;;;13.50;99.90;;;;;;4948387;28;20047;-77
2023/09/07 03:45:26;;;;;;;13.07;11.70;;;13.50;99.90;;;;;;4957390;28;20103;-77
2023/09/07 03:47:54;;;;;;;16.92;14.45;;;13.50;99.90;;;;;;4948117;28;20048;-78
2023/09/07 03:50:22;;;;;;;19.45;14.25;;;13.40;99.90;;;;;;4949028;28;20051;-78
2023/09/07 03:52:50;;;;;;;18.40;16.50;;;13.30;99.90;;;;;;4948812;28;20122;-77
2023/09/07 03:55:17;;;;;;;16.45;13.95;;;13.40;99.90;;;;;;4949284;28;20050;-77
2023/09/07 03:57:46;;;;;;;19.00;15.50;;;13.30;99.90;;;;;;4949903;29;20142;-78
2023/09/07 04:00:15;;;;;;;19.13;16.20;;;13.30;99.90;;;;;;4950782;28;20396;-78
2023/09/07 04:02:48;;;;;;;16.20;14.38;;;13.20;99.90;;;;;;4948431;28;20308;-77
2023/09/07 04:05:16;;;;;;;14.60;12.50;;;13.30;99.90;;;;;;4948053;28;20043;-77
2023/09/07 04:07:43;;;;;;;14.32;11.70;;;13.30;99.90;;;;;;4949307;28;20043;-76
2023/09/07 04:10:11;;;;;;;18.25;11.15;;;13.30;99.90;;;;;;4949779;28;20492;-77
2023/09/07 04:12:38;;;;;;;12.88;10.88;;;13.20;99.90;;;;;;4949746;29;20043;-79
2023/09/07 04:15:08;;;;;;;15.38;11.40;;;13.20;99.90;;;;;;4949664;28;20051;-78
2023/09/07 04:17:40;;;;;;;13.32;11.73;;;13.10;99.90;;;;;;4961341;28;20042;-79
2023/09/07 04:20:11;;;;;;;14.45;12.52;;;13.20;99.90;;;;;;4965146;28;20081;-78
2023/09/07 04:22:40;;;;;;;13.07;10.80;;;13.20;99.90;;;;;;4968138;28;20050;-78
2023/09/07 04:25:08;;;;;;;13.65;10.57;;;13.20;99.90;;;;;;4967185;28;20035;-77
2023/09/07 04:27:36;;;;;;;14.60;10.93;;;13.20;99.90;;;;;;4966991;28;20090;-79
2023/09/07 04:30:03;;;;;;;13.38;10.27;;;13.20;99.90;;;;;;4966989;28;20088;-78
2023/09/07 04:32:33;;;;;;;14.18;10.38;;;13.30;99.90;;;;;;4966477;28;20138;-79
2023/09/07 04:35:01;;;;;;;13.75;10.63;;;13.40;99.90;;;;;;4966486;28;20502;-79
2023/09/07 04:37:29;;;;;;;17.42;11.98;;;13.30;99.90;;;;;;4966848;28;20054;-78
2023/09/07 04:39:56;;;;;;;16.60;12.27;;;13.30;99.90;;;;;;4970685;28;20050;-76
2023/09/07 04:42:25;;;;;;;15.50;13.10;;;13.40;99.90;;;;;;4982919;23;20503;-77
2023/09/07 04:44:52;;;;;;;16.80;12.50;;;13.40;99.90;;;;;;4971710;28;20046;-77
2023/09/07 04:47:20;;;;;;;18.80;10.77;;;13.50;99.90;;;;;;4972669;28;20050;-75
2023/09/07 04:49:51;;;;;;;14.52;10.45;;;13.60;99.90;;;;;;4974302;28;20466;-76
2023/09/07 04:52:21;;;;;;;14.85;10.10;;;13.60;99.90;;;;;;4972464;28;20050;-74
2023/09/07 04:54:50;;;;;;;15.35;11.75;;;13.70;99.90;;;;;;4972719;28;20043;-75
2023/09/07 04:57:19;;;;;;;13.93;11.55;;;13.80;99.90;;;;;;4973962;28;20094;-77
2023/09/07 04:59:49;;;;;;;20.15;12.60;;;13.80;99.90;;;;;;4972887;28;20046;-76
2023/09/07 05:02:17;;;;;;;19.40;12.00;;;13.80;99.90;;;;;;4972986;28;20078;-77
2023/09/07 05:04:44;;;;;;;14.25;10.38;;;13.90;99.90;;;;;;4981960;28;20078;-77
2023/09/07 05:07:13;;;;;;;19.42;12.30;;;13.90;99.90;;;;;;4992356;28;20039;-77
2023/09/07 05:09:41;;;;;;;26.17;19.13;;;14.00;99.90;;;;;;4978684;28;20042;-76
2023/09/07 05:12:09;;;;;;;16.60;13.75;;;14.10;99.90;;;;;;4978611;28;20510;-77
2023/09/07 05:14:39;;;;;;;13.50;9.88;;;14.20;99.90;;;;;;4974553;28;20868;-77
2023/09/07 05:17:08;;;;;;;18.80;13.05;;;14.30;99.90;;;;;;4975081;28;20113;-75
2023/09/07 05:19:37;;;;;;;14.73;10.40;;;14.40;99.90;;;;;;4974512;28;20519;-79
2023/09/07 05:22:05;;;;;;;19.73;11.02;;;14.60;99.90;;;;;;4971425;28;20132;-78
2023/09/07 05:24:34;;;;;;;16.52;11.25;;;14.60;99.90;;;;;;4973975;28;20053;-77
2023/09/07 05:27:03;;;;;;;11.27;9.93;;;14.80;99.90;;;;;;4975485;28;20054;-77
2023/09/07 05:29:30;;;;;;;15.57;11.68;;;14.90;99.90;;;;;;4972806;28;20507;-75
2023/09/07 05:31:58;;;;;;;13.98;11.45;;;15.00;99.90;;;;;;4972573;28;20388;-78
2023/09/07 05:34:27;;;;;;;13.73;11.25;;;15.10;99.90;;;;;;4979211;28;20077;-78
2023/09/07 05:36:54;;;;;;;16.95;11.38;;;15.30;99.90;;;;;;4985537;28;20031;-77
2023/09/07 05:39:22;;;;;;;19.90;12.90;;;15.70;99.90;;;;;;4973170;28;20083;-76
2023/09/07 05:41:52;;;;;;;21.33;13.40;;;15.80;99.90;;;;;;4971616;28;20503;-77
2023/09/07 05:44:20;;;;;;;13.38;9.65;;;16.00;99.90;;;;;;4973424;28;20047;-76
2023/09/07 05:46:49;;;;;;;12.30;9.07;;;16.10;99.90;;;;;;4972034;28;20051;-76
2023/09/07 05:49:22;;;;;;;15.93;10.07;;;16.40;99.90;;;;;;4971059;28;20129;-77
2023/09/07 05:51:50;;;;;;;17.67;9.25;;;16.70;99.90;;;;;;4971899;28;20043;-75
2023/09/07 05:54:18;;;;;;;13.48;9.43;;;17.00;99.90;;;;;;4971793;28;20073;-77
2023/09/07 05:56:45;;;;;;;17.42;10.20;;;17.00;99.90;;;;;;4972972;28;20129;-76
2023/09/07 05:59:14;;;;;;;14.43;10.10;;;17.20;99.90;;;;;;4970651;28;20043;-75
2023/09/07 06:01:42;;;;;;;15.32;10.02;;;17.10;99.90;;;;;;4971430;28;20483;-78
2023/09/07 06:04:10;;;;;;;13.23;9.98;;;17.10;99.90;;;;;;4971545;28;20047;-77
2023/09/07 06:06:38;;;;;;;15.65;10.48;;;17.30;99.90;;;;;;4977912;28;20047;-78
2023/09/07 06:09:06;;;;;;;16.38;11.93;;;17.50;99.90;;;;;;4994606;28;20030;-76
2023/09/07 06:11:34;;;;;;;18.23;10.98;;;17.80;99.90;;;;;;4995493;28;20055;-75
2023/09/07 06:14:03;;;;;;;16.45;10.88;;;18.10;99.90;;;;;;4982324;28;20078;-78
2023/09/07 06:16:33;;;;;;;16.23;9.48;;;18.20;99.90;;;;;;4972553;28;20298;-77
2023/09/07 06:19:01;;;;;;;19.00;10.68;;;18.40;99.90;;;;;;4971099;28;20221;-75
2023/09/07 06:21:28;;;;;;;20.15;11.25;;;18.50;99.90;;;;;;4972831;28;20149;-75
2023/09/07 06:23:56;;;;;;;17.45;11.25;;;18.60;99.90;;;;;;4972932;28;20046;-79
2023/09/07 06:26:23;;;;;;;18.92;11.70;;;18.70;99.90;;;;;;4972277;28;20046;-76
2023/09/07 06:28:52;;;;;;;18.83;14.48;;;18.80;99.90;;;;;;4971819;28;20590;-77
2023/09/07 06:31:19;;;;;;;23.77;13.75;;;19.00;99.90;;;;;;4972116;28;20043;-77
2023/09/07 06:33:49;;;;;;;21.30;12.15;;;19.20;99.90;;;;;;4972338;28;20513;-76
2023/09/07 06:36:16;;;;;;;18.88;12.35;;;19.30;99.90;;;;;;4973001;28;20074;-77
2023/09/07 06:38:46;;;;;;;18.10;11.70;;;19.40;99.90;;;;;;4973160;28;20046;-75
2023/09/07 06:41:13;;;;;;;25.27;10.88;;;19.60;99.90;;;;;;4971646;28;20114;-77
2023/09/07 06:43:42;;;;;;;10.98;9.38;;;19.70;99.90;;;;;;4972343;28;20066;-74
2023/09/07 06:46:12;;;;;;;15.32;10.55;;;19.80;99.90;;;;;;4971222;28;20541;-75
2023/09/07 06:48:40;;;;;;;12.77;9.48;;;20.00;99.90;;;;;;4971449;28;20054;-76
2023/09/07 06:51:09;;;;;;;12.13;10.23;;;20.20;99.90;;;;;;4969972;28;20472;-76
2023/09/07 06:53:37;;;;;;;15.60;10.15;;;20.30;99.90;;;;;;4971221;28;20043;-75
2023/09/07 06:56:06;;;;;;;17.67;11.20;;;20.50;99.90;;;;;;4970751;28;20049;-75
2023/09/07 06:58:34;;;;;;;20.67;12.00;;;20.70;99.90;;;;;;4969788;28;20047;-78
2023/09/07 07:01:04;;;;;;;18.63;12.82;;;20.90;99.90;;;;;;4968945;28;20050;-77
2023/09/07 07:03:32;;;;;;;17.23;12.27;;;21.00;99.90;;;;;;4987916;28;20174;-77
2023/09/07 07:06:01;;;;;;;17.90;12.20;;;20.90;99.90;;;;;;4971963;28;20051;-78
2023/09/07 07:08:29;;;;;;;15.68;11.98;;;21.00;99.90;;;;;;4972233;28;20050;-76
2023/09/07 07:10:57;;;;;;;16.27;11.48;;;20.90;99.90;;;;;;4971836;28;20050;-77
2023/09/07 07:13:27;;;;;;;16.98;10.90;;;21.00;99.90;;;;;;4970462;28;20081;-77
2023/09/07 07:15:55;;;;;;;15.68;11.45;;;21.10;99.90;;;;;;4988383;28;20046;-77
2023/09/07 07:18:22;;;;;;;16.33;11.35;;;21.30;99.90;;;;;;4982872;28;20047;-75
2023/09/07 07:20:51;;;;;;;17.88;10.70;;;21.40;99.90;;;;;;4989899;28;20039;-76
2023/09/07 07:23:19;;;;;;;11.90;9.60;;;21.50;99.90;;;;;;4989997;28;20046;-77
2023/09/07 07:25:48;;;;;;;13.52;9.77;;;21.60;99.90;;;;;;4982680;28;20050;-77
2023/09/07 07:28:15;;;;;;;13.70;10.32;;;21.80;99.90;;;;;;4973167;28;20047;-76
2023/09/07 07:30:43;;;;;;;12.57;9.73;;;21.90;99.90;;;;;;4971818;28;20043;-76
2023/09/07 07:33:12;;;;;;;15.52;10.68;;;22.00;99.90;;;;;;4970200;28;20127;-75
2023/09/07 07:35:41;;;;;;;16.75;10.93;;;22.10;99.90;;;;;;4961477;28;20043;-74
2023/09/07 07:38:09;;;;;;;16.77;12.50;;;22.20;99.90;;;;;;4969229;28;20135;-74
2023/09/07 07:40:38;;;;;;;13.98;9.30;;;22.40;99.90;;;;;;4969469;28;20039;-72
2023/09/07 07:43:09;;;;;;;12.77;9.18;;;22.60;99.90;;;;;;4970166;28;20106;-74
2023/09/07 07:45:38;;;;;;;16.98;8.52;;;22.70;99.90;;;;;;4970188;28;20050;-76
2023/09/07 07:48:08;;;;;;;14.02;8.57;;;22.80;99.90;;;;;;4968906;28;20450;-75
2023/09/07 07:50:43;;;;;;;18.95;12.73;;;22.90;99.90;;;;;;4969277;28;20046;-74
2023/09/07 07:53:14;;;;;;;12.27;8.32;;;23.00;99.90;;;;;;4955701;28;20039;-76
2023/09/07 07:55:48;;;;;;;13.10;10.75;;;23.10;99.90;;;;;;4986001;28;20055;-77
2023/09/07 07:58:20;;;;;;;19.77;11.27;;;23.20;99.90;;;;;;4970588;28;20559;-74
2023/09/07 08:00:48;;;;;;;16.58;11.77;;;23.20;99.90;;;;;;4971475;28;20398;-77
2023/09/07 08:03:22;;;;;;;16.55;10.30;;;23.40;99.90;;;;;;4970383;28;20434;-75
2023/09/07 08:05:50;;;;;;;15.23;11.90;;;23.60;99.90;;;;;;4970698;28;20038;-78
2023/09/07 08:08:18;;;;;;;16.48;9.77;;;23.70;99.90;;;;;;4971500;28;20138;-75
2023/09/07 08:10:46;;;;;;;12.30;9.75;;;23.70;99.90;;;;;;4972920;28;20043;-74
2023/09/07 08:13:14;;;;;;;15.65;12.10;;;23.70;99.90;;;;;;4986092;28;20078;-76
2023/09/07 08:15:45;;;;;;;29.30;20.58;;;23.80;99.90;;;;;;4986690;28;20057;-77
2023/09/07 08:18:15;;;;;;;22.85;12.32;;;23.90;99.90;;;;;;4974176;28;20039;-73
2023/09/07 08:20:43;;;;;;;16.48;10.77;;;24.00;99.90;;;;;;4974802;28;20043;-75
2023/09/07 08:23:11;;;;;;;12.20;8.57;;;24.00;99.90;;;;;;4975275;28;20051;-73
2023/09/07 08:25:44;;;;;;;11.55;9.02;;;23.90;99.90;;;;;;5000528;28;20493;-76
2023/09/07 08:28:13;;;;;;;10.77;8.20;;;24.10;99.90;;;;;;4989578;28;20042;-77
2023/09/07 08:30:40;;;;;;;12.05;9.13;;;24.20;99.90;;;;;;4973569;28;20074;-77
2023/09/07 08:33:09;;;;;;;13.73;9.00;;;24.30;99.90;;;;;;4974650;28;20045;-78
2023/09/07 08:35:43;;;;;;;12.20;8.57;;;24.50;99.90;;;;;;4974822;28;20035;-75
2023/09/07 08:38:11;;;;;;;16.67;9.02;;;24.60;99.90;;;;;;4973141;28;20117;-77
2023/09/07 08:40:41;;;;;;;11.82;8.07;;;24.70;99.90;;;;;;4974426;28;20119;-77
2023/09/07 08:43:11;;;;;;;8.13;7.25;;;24.70;99.90;;;;;;4971225;28;20099;-75
2023/09/07 08:45:47;;;;;;;11.70;8.00;;;24.80;99.90;;;;;;4988608;28;20169;-78
2023/09/07 08:48:20;;;;;;;15.27;9.40;;;24.90;99.90;;;;;;4971213;28;20043;-75
2023/09/07 08:50:50;;;;;;;13.13;9.48;;;25.00;99.90;;;;;;4974860;28;20047;-74
2023/09/07 08:53:20;;;;;;;12.40;8.85;;;25.10;99.90;;;;;;4972001;28;20039;-74
2023/09/07 08:55:49;;;;;;;11.93;9.27;;;25.00;99.90;;;;;;4972419;28;20066;-76
2023/09/07 08:58:17;;;;;;;19.02;12.80;;;25.10;99.90;;;;;;4972826;28;20371;-77
2023/09/07 09:00:45;;;;;;;17.35;11.40;;;25.20;99.90;;;;;;4972776;28;20050;-76
2023/09/07 09:03:13;;;;;;;17.58;10.18;;;25.40;99.90;;;;;;4972193;28;20047;-76
2023/09/07 09:05:44;;;;;;;13.38;9.90;;;25.40;99.90;;;;;;4971786;28;20318;-76
2023/09/07 09:08:11;;;;;;;15.20;10.40;;;25.50;99.90;;;;;;4973562;28;20101;-77
2023/09/07 09:10:41;;;;;;;17.40;12.68;;;25.60;99.90;;;;;;4973960;28;20047;-76
2023/09/07 09:13:11;;;;;;;18.75;9.20;;;25.70;99.90;;;;;;4973508;28;20058;-78
2023/09/07 09:15:38;;;;;;;11.70;8.70;;;25.80;99.90;;;;;;4973179;28;20422;-75
2023/09/07 09:18:13;;;;;;;11.63;7.55;;;25.90;99.90;;;;;;4972286;28;20038;-77
2023/09/07 09:20:42;;;;;;;9.67;7.40;;;26.00;99.90;;;;;;4972476;28;20051;-77
2023/09/07 09:23:12;;;;;;;13.98;7.63;;;26.10;99.90;;;;;;4973483;28;20280;-75
2023/09/07 09:25:41;;;;;;;10.20;7.18;;;26.10;99.90;;;;;;4975262;28;20406;-75
2023/09/07 09:28:10;;;;;;;10.32;6.57;;;26.30;99.90;;;;;;4983169;28;20039;-76
2023/09/07 09:30:39;;;;;;;9.48;6.43;;;26.40;99.90;;;;;;4988486;28;20050;-74
2023/09/07 09:33:07;;;;;;;7.18;5.45;;;26.50;99.90;;;;;;4987244;28;20062;-77
2023/09/07 09:35:36;;;;;;;7.95;4.70;;;26.40;99.90;;;;;;4986145;28;20051;-75
2023/09/07 09:38:05;;;;;;;7.07;4.43;;;26.40;99.90;;;;;;4979741;28;20294;-77
2023/09/07 09:40:34;;;;;;;8.45;4.22;;;26.20;99.90;;;;;;4982747;28;20051;-76
2023/09/07 09:43:03;;;;;;;10.85;4.53;;;26.30;99.90;;;;;;4974531;28;20055;-77
2023/09/07 09:45:31;;;;;;;11.57;8.07;;;26.50;99.90;;;;;;4974961;28;20074;-78
2023/09/07 09:48:00;;;;;;;7.95;4.85;;;26.60;99.90;;;;;;4973750;28;20059;-73
2023/09/07 09:50:28;;;;;;;9.15;4.70;;;26.60;99.90;;;;;;4976777;28;20050;-74
2023/09/07 09:52:57;;;;;;;11.93;4.70;;;26.60;99.90;;;;;;4990487;28;20051;-75
2023/09/07 09:55:26;;;;;;;7.70;5.57;;;26.70;99.90;;;;;;4973860;28;20053;-73
2023/09/07 09:57:57;;;;;;;7.35;4.10;;;26.70;99.90;;;;;;4975454;28;20102;-74
2023/09/07 10:00:27;;;;;;;7.75;4.50;;;26.50;99.90;;;;;;4976001;28;20050;-77
2023/09/07 10:03:11;;;;;;;7.60;5.35;;;26.30;99.90;;;;;;4976323;28;20042;-73
2023/09/07 10:05:39;;;;;;;9.27;6.40;;;26.50;99.90;;;;;;4981433;28;20074;-75
2023/09/07 10:08:13;;;;;;;7.32;4.55;;;26.70;99.90;;;;;;4990041;28;20051;-76
2023/09/07 10:10:43;;;;;;;6.63;4.78;;;26.80;99.90;;;;;;4994422;28;20034;-76
2023/09/07 10:13:14;;;;;;;5.70;4.30;;;26.80;99.90;;;;;;4995943;28;20043;-76
2023/09/07 10:15:42;;;;;;;8.20;5.80;;;26.80;99.90;;;;;;4992233;28;20045;-77
2023/09/07 10:18:13;;;;;;;6.28;4.45;;;27.00;99.90;;;;;;4983959;28;20062;-74
2023/09/07 10:20:56;;;;;;;8.05;5.43;;;27.10;99.90;;;;;;4985786;28;20051;-74
2023/09/07 10:23:24;;;;;;;8.30;4.60;;;27.00;99.90;;;;;;4987556;28;20058;-80
2023/09/07 10:25:55;;;;;;;7.45;4.47;;;26.80;99.90;;;;;;4986163;28;20057;-76
2023/09/07 10:28:24;;;;;;;10.52;7.85;;;26.80;99.90;;;;;;4982620;28;20050;-77
2023/09/07 10:31:04;;;;;;;8.68;5.85;;;26.70;99.90;;;;;;4980930;28;20055;-77
2023/09/07 10:33:32;;;;;;;7.38;4.68;;;26.70;99.90;;;;;;4978948;28;20050;-75
2023/09/07 10:36:01;;;;;;;6.25;4.82;;;26.90;99.90;;;;;;4976724;28;20050;-75
2023/09/07 10:38:29;;;;;;;6.43;4.00;;;27.10;99.90;;;;;;4973349;28;20042;-76
2023/09/07 10:40:58;;;;;;;9.27;4.65;;;27.10;99.90;;;;;;4974412;28;20070;-76
2023/09/07 10:43:27;;;;;;;9.75;4.30;;;26.90;99.90;;;;;;4991071;28;20105;-75
2023/09/07 10:45:55;;;;;;;6.35;4.03;;;26.70;99.90;;;;;;4973902;28;20050;-75
2023/09/07 10:48:24;;;;;;;7.93;3.90;;;26.70;99.90;;;;;;4976062;28;20047;-76
2023/09/07 10:50:55;;;;;;;7.47;4.15;;;26.70;99.90;;;;;;4977770;28;20155;-77
2023/09/07 10:53:28;;;;;;;7.03;4.72;;;26.90;99.90;;;;;;4972600;28;20043;-76
2023/09/07 10:55:58;;;;;;;5.05;4.10;;;26.90;99.90;;;;;;4971524;28;20049;-75
2023/09/07 10:58:27;;;;;;;8.60;4.60;;;26.70;99.90;;;;;;4973210;28;20043;-74
2023/09/07 11:00:57;;;;;;;6.32;5.10;;;26.70;99.90;;;;;;4976278;28;20050;-78
2023/09/07 11:03:26;;;;;;;8.57;4.63;;;26.90;99.90;;;;;;4971978;28;20054;-76
2023/09/07 11:05:58;;;;;;;8.18;5.20;;;27.00;99.90;;;;;;4971038;28;20042;-79
2023/09/07 11:08:26;;;;;;;8.45;4.90;;;27.20;99.90;;;;;;4972337;28;20039;-76
2023/09/07 11:10:54;;;;;;;11.73;7.10;;;27.30;99.90;;;;;;4972522;28;20125;-75
2023/09/07 11:13:25;;;;;;;6.43;5.07;;;27.40;99.90;;;;;;4971870;28;20058;-78
2023/09/07 11:15:55;;;;;;;9.32;4.72;;;27.50;99.90;;;;;;4972777;28;20194;-77
2023/09/07 11:18:22;;;;;;;6.97;4.72;;;27.40;99.90;;;;;;4987194;28;20070;-75
2023/09/07 11:20:50;;;;;;;9.13;5.53;;;27.30;99.90;;;;;;4972521;28;20038;-75
2023/09/07 11:23:18;;;;;;;6.70;4.95;;;27.20;99.90;;;;;;4972414;28;20066;-77
2023/09/07 11:25:48;;;;;;;8.38;4.82;;;27.00;99.90;;;;;;4973019;28;20051;-79
2023/09/07 11:28:18;;;;;;;7.10;4.38;;;27.10;99.90;;;;;;4972651;28;20357;-76
2023/09/07 11:30:55;;;;;;;9.00;5.80;;;27.20;99.90;;;;;;4973062;28;20039;-75
2023/09/07 11:33:23;;;;;;;7.15;4.72;;;27.20;99.90;;;;;;4971885;28;20677;-76
2023/09/07 11:35:51;;;;;;;6.45;4.68;;;27.20;99.90;;;;;;4970397;28;20043;-77
2023/09/07 11:38:19;;;;;;;8.00;4.88;;;27.20;99.90;;;;;;4974078;28;20038;-76
2023/09/07 11:40:47;;;;;;;11.15;5.28;;;27.20;99.90;;;;;;4978078;28;20130;-76
2023/09/07 11:43:16;;;;;;;9.55;4.97;;;27.40;99.90;;;;;;4989248;28;20066;-75
2023/09/07 11:45:45;;;;;;;7.57;5.00;;;27.30;99.90;;;;;;4976165;28;20502;-76
2023/09/07 11:48:14;;;;;;;8.63;6.05;;;27.20;99.90;;;;;;4969884;28;20058;-74
2023/09/07 11:50:42;;;;;;;9.52;5.15;;;27.30;99.90;;;;;;4982990;28;20042;-78
2023/09/07 11:53:09;;;;;;;7.22;5.25;;;27.10;99.90;;;;;;4982015;28;20059;-76
2023/09/07 11:55:39;;;;;;;9.63;5.03;;;26.90;99.90;;;;;;4975361;28;20102;-75
2023/09/07 11:58:06;;;;;;;7.18;5.35;;;26.80;99.90;;;;;;4971106;28;20055;-80
2023/09/07 12:00:34;;;;;;;7.53;5.13;;;26.90;99.90;;;;;;4987778;28;20050;-76
2023/09/07 12:03:02;;;;;;;10.77;5.00;;;27.20;99.90;;;;;;4971254;28;20194;-74
2023/09/07 12:05:32;;;;;;;8.48;5.95;;;27.20;99.90;;;;;;4970860;28;20139;-75
2023/09/07 12:08:01;;;;;;;9.13;6.38;;;27.20;99.90;;;;;;4970347;28;20070;-75
2023/09/07 12:10:29;;;;;;;9.52;4.97;;;27.00;99.90;;;;;;4970822;28;20402;-76
2023/09/07 12:12:56;;;;;;;8.68;5.45;;;27.10;99.90;;;;;;4971893;28;20047;-78
2023/09/07 12:15:24;;;;;;;10.32;5.22;;;27.20;99.90;;;;;;4973070;28;20274;-76
2023/09/07 12:17:55;;;;;;;5.95;3.97;;;27.20;99.90;;;;;;4979513;28;20039;-79
2023/09/07 12:20:24;;;;;;;9.77;4.88;;;26.80;99.90;;;;;;4981121;28;20039;-76
2023/09/07 12:22:53;;;;;;;10.77;4.63;;;26.90;99.90;;;;;;4972543;28;20061;-76
2023/09/07 12:25:20;;;;;;;9.75;5.03;;;26.90;99.90;;;;;;4974171;28;20551;-76
2023/09/07 12:27:50;;;;;;;6.68;4.80;;;26.70;99.90;;;;;;4971652;28;20045;-75
2023/09/07 12:30:20;;;;;;;6.07;4.35;;;26.80;99.90;;;;;;4971268;28;20059;-75
2023/09/07 12:32:50;;;;;;;6.57;5.18;;;27.10;99.90;;;;;;4969692;28;20039;-76
2023/09/07 12:35:17;;;;;;;7.20;4.50;;;27.30;99.90;;;;;;4972259;28;20050;-76
2023/09/07 12:37:45;;;;;;;7.20;4.93;;;27.50;99.90;;;;;;4986764;28;20059;-74
2023/09/07 12:40:14;;;;;;;6.18;4.25;;;27.60;99.90;;;;;;5005848;28;20051;-79
2023/09/07 12:42:42;;;;;;;10.25;5.50;;;27.40;99.90;;;;;;4990817;28;20058;-78